Time;durP1;ratioP1;P1;durP2;ratioP2;P2;SDS_P1;SDS_P2;PMS_P1;PMS_P2;Temp;Humidity;BMP_temperature;BMP_pressure;BME280_temperature;BME280_humidity;BME280_pressure;Samples;Min_cycle;Max_cycle;Signal;HPM_P1;HPM_P2
2024/02/24 00:00:52;;;;;;;2.80;1.30;;;1.30;99.90;;;;;;2050372;28;20224;-72
2024/02/24 00:01:53;;;;;;;1.80;1.30;;;1.30;99.90;;;;;;2051432;28;20308;-72
2024/02/24 00:02:54;;;;;;;4.40;1.50;;;1.30;99.90;;;;;;2052986;28;20188;-73
2024/02/24 00:03:54;;;;;;;2.33;1.70;;;1.30;99.90;;;;;;2049232;28;20682;-72
2024/02/24 00:04:57;;;;;;;2.40;1.40;;;1.30;99.90;;;;;;2053945;28;20552;-73
2024/02/24 00:05:57;;;;;;;2.25;1.50;;;1.40;99.90;;;;;;2052865;28;20193;-73
2024/02/24 00:06:58;;;;;;;3.17;1.43;;;1.40;99.90;;;;;;2040023;29;20267;-72
2024/02/24 00:07:59;;;;;;;2.03;1.57;;;1.50;99.90;;;;;;2039306;29;20282;-72
2024/02/24 00:08:59;;;;;;;1.93;1.40;;;1.40;99.90;;;;;;2063161;28;20180;-72
2024/02/24 00:10:00;;;;;;;3.03;1.63;;;1.50;99.90;;;;;;2059265;28;20175;-73
2024/02/24 00:11:01;;;;;;;2.70;1.63;;;1.60;99.90;;;;;;2040831;29;20238;-73
2024/02/24 00:12:01;;;;;;;1.97;1.23;;;1.60;99.90;;;;;;2037516;29;20200;-73
2024/02/24 00:13:02;;;;;;;1.60;1.23;;;1.60;99.90;;;;;;2038096;29;20179;-72
2024/02/24 00:14:03;;;;;;;2.30;1.70;;;1.60;99.90;;;;;;2046080;28;20217;-72
2024/02/24 00:15:04;;;;;;;3.97;2.00;;;1.60;99.90;;;;;;2045476;28;20191;-72
2024/02/24 00:16:05;;;;;;;2.33;1.58;;;1.60;99.90;;;;;;2053210;28;20213;-72
2024/02/24 00:17:06;;;;;;;3.60;1.52;;;1.60;99.90;;;;;;2046762;28;20195;-71
2024/02/24 00:18:07;;;;;;;2.47;1.43;;;1.60;99.90;;;;;;2047507;28;20324;-72
2024/02/24 00:19:07;;;;;;;3.63;1.87;;;1.50;99.90;;;;;;2044957;28;20217;-71
2024/02/24 00:20:09;;;;;;;1.50;1.40;;;1.50;99.90;;;;;;2050395;28;20619;-71
2024/02/24 00:21:10;;;;;;;2.05;1.25;;;1.40;99.90;;;;;;2053394;28;20188;-72
2024/02/24 00:22:10;;;;;;;1.60;1.17;;;1.50;99.90;;;;;;2052398;28;20429;-72
2024/02/24 00:23:11;;;;;;;2.07;1.10;;;1.40;99.90;;;;;;2058793;28;20180;-72
2024/02/24 00:24:12;;;;;;;1.47;0.90;;;1.50;99.90;;;;;;2051329;28;20673;-72
2024/02/24 00:25:12;;;;;;;2.17;1.00;;;1.70;99.90;;;;;;2046115;28;20658;-71
2024/02/24 00:26:13;;;;;;;1.67;0.90;;;1.80;99.90;;;;;;2060309;28;20238;-71
2024/02/24 00:27:14;;;;;;;2.83;1.03;;;1.80;99.90;;;;;;2055233;28;20274;-72
2024/02/24 00:28:15;;;;;;;2.97;1.57;;;1.80;99.90;;;;;;2051637;28;20301;-72
2024/02/24 00:29:15;;;;;;;1.43;1.20;;;1.70;99.90;;;;;;2045742;28;20263;-74
2024/02/24 00:30:16;;;;;;;2.40;1.10;;;1.80;99.90;;;;;;2047099;28;20237;-73
2024/02/24 00:31:17;;;;;;;3.17;1.30;;;1.80;99.90;;;;;;2047689;28;20234;-73
2024/02/24 00:32:17;;;;;;;2.37;1.03;;;1.80;99.90;;;;;;2049764;28;20236;-74
2024/02/24 00:33:18;;;;;;;1.20;0.97;;;1.80;99.90;;;;;;2047657;28;20296;-72
2024/02/24 00:34:19;;;;;;;1.57;0.97;;;1.90;99.90;;;;;;2048569;28;20624;-70
2024/02/24 00:35:20;;;;;;;2.47;1.20;;;1.90;99.90;;;;;;2047088;28;20267;-72
2024/02/24 00:36:20;;;;;;;1.53;1.10;;;1.90;99.90;;;;;;2053831;28;20677;-73
2024/02/24 00:37:21;;;;;;;1.87;0.97;;;2.00;99.90;;;;;;2046519;28;20227;-72
2024/02/24 00:38:22;;;;;;;1.70;1.10;;;2.00;99.90;;;;;;2051343;28;20328;-73
2024/02/24 00:39:22;;;;;;;2.17;1.13;;;2.10;99.90;;;;;;2052385;28;20674;-73
2024/02/24 00:40:23;;;;;;;3.60;1.20;;;2.20;99.90;;;;;;2057638;28;20240;-73
2024/02/24 00:41:24;;;;;;;3.60;1.63;;;2.30;99.90;;;;;;2051877;28;20737;-73
2024/02/24 00:42:25;;;;;;;2.73;1.30;;;2.30;99.90;;;;;;2053988;28;20233;-72
2024/02/24 00:43:26;;;;;;;1.90;1.23;;;2.40;99.90;;;;;;2046817;28;20238;-72
2024/02/24 00:44:26;;;;;;;1.67;1.20;;;2.40;99.90;;;;;;2046138;28;20243;-71
2024/02/24 00:45:27;;;;;;;2.20;1.00;;;2.40;99.90;;;;;;2061025;28;20228;-72
2024/02/24 00:46:28;;;;;;;2.70;1.40;;;2.50;99.90;;;;;;2056163;28;20241;-72
2024/02/24 00:47:29;;;;;;;2.07;1.47;;;2.50;99.90;;;;;;2051725;28;20241;-74
2024/02/24 00:48:29;;;;;;;2.27;1.10;;;2.50;99.90;;;;;;2043092;29;20299;-73
2024/02/24 00:49:30;;;;;;;4.03;1.40;;;2.50;99.90;;;;;;2052453;28;20311;-73
2024/02/24 00:50:31;;;;;;;1.93;1.20;;;2.40;99.90;;;;;;2062267;28;20252;-73
2024/02/24 00:51:31;;;;;;;1.67;1.00;;;2.50;99.90;;;;;;2062657;28;20803;-72
2024/02/24 00:52:33;;;;;;;1.33;1.03;;;2.40;99.90;;;;;;2048809;28;20794;-73
2024/02/24 00:53:33;;;;;;;1.17;0.90;;;2.50;99.90;;;;;;2051378;28;20241;-72
2024/02/24 00:54:34;;;;;;;1.57;1.10;;;2.50;99.90;;;;;;2044982;28;20397;-72
2024/02/24 00:55:35;;;;;;;2.03;1.10;;;2.50;99.90;;;;;;2052908;28;20324;-72
2024/02/24 00:56:36;;;;;;;2.53;1.40;;;2.60;99.90;;;;;;2060094;28;20253;-74
2024/02/24 00:57:37;;;;;;;1.10;1.00;;;2.60;99.90;;;;;;2062902;28;20682;-73
2024/02/24 00:58:37;;;;;;;3.23;1.17;;;2.80;99.90;;;;;;2059761;28;20236;-73
2024/02/24 00:59:38;;;;;;;1.30;1.10;;;2.80;99.90;;;;;;2053148;28;20276;-73
2024/02/24 01:00:39;;;;;;;1.27;1.17;;;2.70;99.90;;;;;;2047529;28;20301;-72
2024/02/24 01:01:39;;;;;;;1.20;1.00;;;2.70;99.90;;;;;;2058976;28;20241;-72
2024/02/24 01:02:40;;;;;;;2.00;1.20;;;2.80;99.90;;;;;;2057937;28;20268;-72
2024/02/24 01:03:41;;;;;;;2.80;1.27;;;2.80;99.90;;;;;;2054410;28;21072;-72
2024/02/24 01:04:41;;;;;;;2.37;1.10;;;2.70;99.90;;;;;;2058031;28;20245;-72
2024/02/24 01:05:44;;;;;;;3.23;1.20;;;2.70;99.90;;;;;;2052158;28;20233;-72
2024/02/24 01:06:45;;;;;;;2.28;1.27;;;2.60;99.90;;;;;;2043348;28;20232;-75
2024/02/24 01:07:45;;;;;;;4.80;1.73;;;2.60;99.90;;;;;;2057353;28;20647;-73
2024/02/24 01:08:46;;;;;;;1.40;1.30;;;2.70;99.90;;;;;;2058786;28;20244;-74
2024/02/24 01:09:47;;;;;;;1.47;1.30;;;2.70;99.90;;;;;;2048341;28;20717;-73
2024/02/24 01:10:47;;;;;;;2.27;1.20;;;2.70;99.90;;;;;;2054475;28;20252;-74
2024/02/24 01:11:48;;;;;;;0.97;0.87;;;2.70;99.90;;;;;;2049148;28;20286;-72
2024/02/24 01:12:49;;;;;;;1.63;1.17;;;2.70;99.90;;;;;;2046634;28;20248;-73
2024/02/24 01:13:50;;;;;;;1.60;1.30;;;2.80;99.90;;;;;;2069003;28;20279;-73
2024/02/24 01:14:51;;;;;;;1.80;1.07;;;2.80;99.90;;;;;;2067178;28;20728;-72
2024/02/24 01:15:52;;;;;;;1.23;1.00;;;2.70;99.90;;;;;;2048389;28;20724;-73
2024/02/24 01:16:52;;;;;;;1.07;0.90;;;2.70;99.90;;;;;;2053664;28;20245;-72
2024/02/24 01:17:56;;;;;;;1.93;1.20;;;2.60;99.90;;;;;;2049360;28;20786;-72
2024/02/24 01:18:57;;;;;;;2.65;1.45;;;2.60;99.90;;;;;;2044263;28;20668;-74
2024/02/24 01:19:58;;;;;;;2.73;1.20;;;2.60;99.90;;;;;;2053064;28;20196;-73
2024/02/24 01:20:58;;;;;;;1.30;0.90;;;2.50;99.90;;;;;;2052602;28;20193;-72
2024/02/24 01:21:59;;;;;;;4.77;1.20;;;2.60;99.90;;;;;;2051726;28;20611;-73
2024/02/24 01:23:00;;;;;;;1.70;1.10;;;2.60;99.90;;;;;;2059441;28;20235;-72
2024/02/24 01:24:00;;;;;;;2.20;1.00;;;2.60;99.90;;;;;;2052411;28;20187;-71
2024/02/24 01:25:01;;;;;;;2.30;0.80;;;2.60;99.90;;;;;;2053224;28;20300;-73
2024/02/24 01:26:02;;;;;;;1.27;1.17;;;2.50;99.90;;;;;;2037768;29;20196;-73
2024/02/24 01:27:03;;;;;;;1.17;0.87;;;2.50;99.90;;;;;;2049934;28;20209;-72
2024/02/24 01:28:05;;;;;;;3.70;1.10;;;2.60;99.90;;;;;;2051187;28;20350;-71
2024/02/24 01:29:06;;;;;;;3.70;1.25;;;2.60;99.90;;;;;;2050769;28;20330;-73
2024/02/24 01:30:07;;;;;;;2.27;1.10;;;2.50;99.90;;;;;;2046002;28;20202;-74
2024/02/24 01:31:08;;;;;;;1.80;1.00;;;2.50;99.90;;;;;;2051863;28;20183;-73
2024/02/24 01:32:08;;;;;;;1.53;0.80;;;2.40;99.90;;;;;;2052478;28;20189;-72
2024/02/24 01:33:09;;;;;;;1.70;0.70;;;2.40;99.90;;;;;;2053588;28;20562;-72
2024/02/24 01:34:10;;;;;;;0.90;0.80;;;2.40;99.90;;;;;;2059871;28;20202;-72
2024/02/24 01:35:11;;;;;;;1.97;0.80;;;2.50;99.90;;;;;;2060989;28;20178;-71
2024/02/24 01:36:11;;;;;;;1.93;0.70;;;2.60;99.90;;;;;;2053591;28;20202;-73
2024/02/24 01:37:12;;;;;;;1.90;1.33;;;2.60;99.90;;;;;;2056777;28;20210;-73
2024/02/24 01:38:13;;;;;;;1.23;0.90;;;2.60;99.90;;;;;;2054303;28;20383;-73
2024/02/24 01:39:13;;;;;;;0.60;0.60;;;2.70;99.90;;;;;;2052332;28;20256;-74
2024/02/24 01:40:14;;;;;;;0.97;0.87;;;2.70;99.90;;;;;;2049139;28;20714;-74
2024/02/24 01:41:15;;;;;;;0.70;0.70;;;2.70;99.90;;;;;;2049638;28;20231;-73
2024/02/24 01:42:16;;;;;;;1.20;0.80;;;2.70;99.90;;;;;;2048651;28;20241;-73
2024/02/24 01:43:27;;;;;;;2.10;0.87;;;2.80;99.90;;;;;;2054109;28;20258;-73
2024/02/24 01:44:27;;;;;;;0.60;0.60;;;2.80;99.90;;;;;;2053745;28;20240;-73
2024/02/24 01:45:28;;;;;;;1.00;0.83;;;2.80;99.90;;;;;;2043817;28;20917;-73
2024/02/24 01:46:31;;;;;;;1.00;0.90;;;2.70;99.90;;;;;;2037803;28;20254;-72
2024/02/24 01:47:31;;;;;;;1.88;0.80;;;2.80;99.90;;;;;;2045858;28;20259;-71
2024/02/24 01:48:33;;;;;;;1.13;0.90;;;2.80;99.90;;;;;;2053930;28;20322;-74
2024/02/24 01:49:33;;;;;;;0.70;0.65;;;2.80;99.90;;;;;;2045894;28;20637;-72
2024/02/24 01:50:40;;;;;;;1.47;0.67;;;2.90;99.90;;;;;;2047402;28;20238;-73
2024/02/24 01:51:42;;;;;;;0.90;0.80;;;2.90;99.90;;;;;;2036048;28;20244;-73
2024/02/24 01:52:48;;;;;;;0.70;0.68;;;2.90;99.90;;;;;;2038462;28;20746;-73
2024/02/24 01:53:48;;;;;;;1.80;0.85;;;2.90;99.90;;;;;;2050220;28;20223;-73
2024/02/24 01:54:58;;;;;;;1.30;0.80;;;2.80;99.90;;;;;;2054230;28;20238;-73
2024/02/24 01:56:01;;;;;;;1.38;0.80;;;2.90;99.90;;;;;;2057995;28;20735;-72
2024/02/24 01:57:03;;;;;;;0.60;0.60;;;2.80;99.90;;;;;;2042273;28;20599;-74
2024/02/24 01:58:04;;;;;;;0.60;0.55;;;2.80;99.90;;;;;;2047613;28;20226;-72
2024/02/24 01:59:05;;;;;;;0.52;0.52;;;2.80;99.90;;;;;;2046899;28;20178;-72
2024/02/24 02:00:09;;;;;;;1.43;0.80;;;2.80;99.90;;;;;;2045876;28;20206;-72
2024/02/24 02:01:10;;;;;;;0.85;0.60;;;2.80;99.90;;;;;;2049622;28;20579;-74
2024/02/24 02:02:10;;;;;;;0.70;0.70;;;2.80;99.90;;;;;;2040039;28;20215;-74
2024/02/24 02:03:11;;;;;;;1.20;0.70;;;2.80;99.90;;;;;;2042000;28;20272;-74
2024/02/24 02:04:12;;;;;;;0.90;0.73;;;2.80;99.90;;;;;;2039659;29;20198;-74
2024/02/24 02:05:13;;;;;;;0.70;0.70;;;2.70;99.90;;;;;;2050041;28;20231;-74
2024/02/24 02:06:14;;;;;;;0.80;0.80;;;2.70;99.90;;;;;;2047781;28;20271;-74
2024/02/24 02:07:15;;;;;;;0.70;0.70;;;2.70;99.90;;;;;;2058060;28;20292;-74
2024/02/24 02:08:16;;;;;;;0.70;0.70;;;2.70;99.90;;;;;;2049417;28;20237;-74
2024/02/24 02:09:17;;;;;;;1.67;1.00;;;2.70;99.90;;;;;;2042229;28;20327;-74
2024/02/24 02:10:17;;;;;;;1.17;0.70;;;2.50;99.90;;;;;;2039599;28;20233;-75
2024/02/24 02:11:18;;;;;;;0.70;0.70;;;2.50;99.90;;;;;;2042278;29;20241;-75
2024/02/24 02:12:19;;;;;;;1.03;0.67;;;2.50;99.90;;;;;;2044387;29;20243;-75
2024/02/24 02:13:20;;;;;;;0.70;0.70;;;2.50;99.90;;;;;;2042950;29;20238;-74
2024/02/24 02:14:21;;;;;;;0.75;0.70;;;2.50;99.90;;;;;;2044132;28;20419;-74
2024/02/24 02:15:21;;;;;;;0.60;0.60;;;2.50;99.90;;;;;;2053955;28;20638;-74
2024/02/24 02:16:22;;;;;;;0.60;0.60;;;2.50;99.90;;;;;;2052452;28;20236;-74
2024/02/24 02:17:23;;;;;;;0.80;0.70;;;2.50;99.90;;;;;;2051158;28;20330;-75
2024/02/24 02:18:24;;;;;;;1.13;0.70;;;2.50;99.90;;;;;;2047869;28;20241;-73
2024/02/24 02:19:25;;;;;;;0.70;0.70;;;2.50;99.90;;;;;;2054592;28;20997;-74
2024/02/24 02:20:25;;;;;;;0.80;0.80;;;2.50;99.90;;;;;;2056334;28;20640;-74
2024/02/24 02:21:26;;;;;;;0.73;0.70;;;2.50;99.90;;;;;;2057810;28;20251;-74
2024/02/24 02:22:27;;;;;;;0.70;0.70;;;2.50;99.90;;;;;;2060833;28;20590;-74
2024/02/24 02:23:28;;;;;;;0.70;0.67;;;2.50;99.90;;;;;;2050405;28;20249;-74
2024/02/24 02:24:28;;;;;;;0.60;0.57;;;2.40;99.90;;;;;;2051059;28;20245;-74
2024/02/24 02:25:29;;;;;;;4.10;0.80;;;2.40;99.90;;;;;;2048019;28;20721;-74
2024/02/24 02:26:30;;;;;;;0.57;0.50;;;2.30;99.90;;;;;;2052965;28;20636;-74
2024/02/24 02:27:32;;;;;;;0.50;0.50;;;2.30;99.90;;;;;;2058468;28;20224;-74
2024/02/24 02:28:33;;;;;;;0.50;0.50;;;2.30;99.90;;;;;;2056161;28;20356;-74
2024/02/24 02:29:33;;;;;;;0.53;0.50;;;2.30;99.90;;;;;;2039596;28;20368;-74
2024/02/24 02:30:34;;;;;;;1.33;0.83;;;2.30;99.90;;;;;;2046635;28;20280;-74
2024/02/24 02:31:35;;;;;;;0.67;0.50;;;2.30;99.90;;;;;;2045547;28;20747;-74
2024/02/24 02:32:36;;;;;;;0.57;0.57;;;2.30;99.90;;;;;;2038614;29;20259;-74
2024/02/24 02:33:36;;;;;;;0.70;0.70;;;2.30;99.90;;;;;;2051098;28;20269;-74
2024/02/24 02:34:37;;;;;;;0.60;0.50;;;2.30;99.90;;;;;;2045411;28;20236;-74
2024/02/24 02:35:38;;;;;;;0.90;0.70;;;2.30;99.90;;;;;;2045463;28;20234;-75
2024/02/24 02:36:39;;;;;;;0.68;0.50;;;2.30;99.90;;;;;;2044487;28;20230;-75
2024/02/24 02:37:40;;;;;;;0.57;0.53;;;2.30;99.90;;;;;;2053541;28;20243;-74
2024/02/24 02:38:40;;;;;;;0.50;0.50;;;2.30;99.90;;;;;;2049213;28;20232;-74
2024/02/24 02:39:41;;;;;;;0.70;0.60;;;2.30;99.90;;;;;;2040999;28;20294;-74
2024/02/24 02:40:42;;;;;;;0.50;0.50;;;2.40;99.90;;;;;;2051369;28;20237;-75
2024/02/24 02:41:43;;;;;;;1.87;0.90;;;2.40;99.90;;;;;;2050060;28;20266;-75
2024/02/24 02:42:44;;;;;;;0.82;0.82;;;2.50;99.90;;;;;;2048860;28;20696;-74
2024/02/24 02:43:45;;;;;;;0.50;0.50;;;2.40;99.90;;;;;;2042422;28;20785;-74
2024/02/24 02:44:45;;;;;;;0.80;0.80;;;2.50;99.90;;;;;;2031002;29;20319;-74
2024/02/24 02:45:46;;;;;;;1.30;1.00;;;2.50;99.90;;;;;;2043617;29;20289;-74
2024/02/24 02:46:48;;;;;;;2.53;1.13;;;2.50;99.90;;;;;;2039508;28;20717;-74
2024/02/24 02:47:48;;;;;;;2.08;1.00;;;2.60;99.90;;;;;;2049910;28;20239;-75
2024/02/24 02:48:49;;;;;;;1.13;1.03;;;2.60;99.90;;;;;;2049398;28;20933;-74
2024/02/24 02:49:50;;;;;;;1.90;1.17;;;2.60;99.90;;;;;;2049639;28;20261;-75
2024/02/24 02:50:50;;;;;;;1.43;1.00;;;2.60;99.90;;;;;;2058508;28;20280;-74
2024/02/24 02:51:51;;;;;;;2.47;0.97;;;2.60;99.90;;;;;;2048010;28;20247;-75
2024/02/24 02:52:52;;;;;;;0.93;0.90;;;2.50;99.90;;;;;;2052607;28;20683;-75
2024/02/24 02:53:52;;;;;;;1.00;0.90;;;2.50;99.90;;;;;;2052404;28;20240;-75
2024/02/24 02:54:53;;;;;;;2.23;0.90;;;2.50;99.90;;;;;;2043258;28;20599;-74
2024/02/24 02:55:54;;;;;;;1.20;1.00;;;2.50;99.90;;;;;;2051597;28;20272;-74
2024/02/24 02:56:54;;;;;;;1.47;1.10;;;2.50;99.90;;;;;;2043682;28;20213;-75
2024/02/24 02:57:55;;;;;;;1.00;0.80;;;2.60;99.90;;;;;;2041834;28;20181;-75
2024/02/24 02:58:56;;;;;;;2.07;1.30;;;2.60;99.90;;;;;;2040794;28;20182;-74
2024/02/24 02:59:56;;;;;;;1.97;0.90;;;2.60;99.90;;;;;;2044094;28;20186;-75
2024/02/24 03:00:57;;;;;;;1.23;0.97;;;2.70;99.90;;;;;;2059077;28;20196;-75
2024/02/24 03:01:59;;;;;;;1.17;0.80;;;2.70;99.90;;;;;;2052056;28;20213;-75
2024/02/24 03:02:59;;;;;;;2.03;1.00;;;2.70;99.90;;;;;;2049110;28;20186;-75
2024/02/24 03:04:00;;;;;;;1.10;1.00;;;2.60;99.90;;;;;;2056450;28;20200;-75
2024/02/24 03:05:01;;;;;;;2.60;1.10;;;2.60;99.90;;;;;;2054153;28;20185;-75
2024/02/24 03:06:02;;;;;;;1.40;1.07;;;2.60;99.90;;;;;;2048418;28;20694;-74
2024/02/24 03:07:03;;;;;;;1.08;0.93;;;2.60;99.90;;;;;;2054427;28;20305;-75
2024/02/24 03:08:04;;;;;;;1.83;1.00;;;2.60;99.90;;;;;;2043091;28;20187;-75
2024/02/24 03:09:05;;;;;;;0.80;0.80;;;2.60;99.90;;;;;;2033484;29;20185;-75
2024/02/24 03:10:07;;;;;;;1.05;0.90;;;2.60;99.90;;;;;;2042910;28;20187;-75
2024/02/24 03:11:17;;;;;;;1.88;0.90;;;2.70;99.90;;;;;;2045383;28;20241;-75
2024/02/24 03:12:18;;;;;;;1.15;1.00;;;2.60;99.90;;;;;;2045983;28;20235;-75
2024/02/24 03:13:18;;;;;;;0.90;0.80;;;2.70;99.90;;;;;;2048368;28;20317;-75
2024/02/24 03:14:20;;;;;;;1.10;1.00;;;2.70;99.90;;;;;;2058160;28;20608;-74
2024/02/24 03:15:20;;;;;;;8.45;5.25;;;2.70;99.90;;;;;;2049011;28;20245;-75
2024/02/24 03:16:21;;;;;;;10.90;7.07;;;2.60;99.90;;;;;;2045245;28;20749;-75
2024/02/24 03:17:22;;;;;;;5.80;4.30;;;2.60;99.90;;;;;;2050367;28;20234;-75
2024/02/24 03:18:23;;;;;;;3.67;2.90;;;2.70;99.90;;;;;;2055147;28;20658;-75
2024/02/24 03:19:23;;;;;;;1.15;0.60;;;2.60;99.90;;;;;;2047828;28;20301;-74
2024/02/24 03:20:24;;;;;;;0.97;0.87;;;2.70;99.90;;;;;;2048574;28;20249;-74
2024/02/24 03:21:33;;;;;;;0.80;0.50;;;2.60;99.90;;;;;;2050398;28;20276;-74
2024/02/24 03:22:34;;;;;;;0.60;0.60;;;2.60;99.90;;;;;;2053468;28;20768;-74
2024/02/24 03:23:35;;;;;;;0.88;0.60;;;2.50;99.90;;;;;;2047163;28;20234;-75
2024/02/24 03:24:40;;;;;;;0.53;0.50;;;2.50;99.90;;;;;;2050926;28;20232;-75
2024/02/24 03:25:40;;;;;;;0.60;0.60;;;2.40;99.90;;;;;;2049542;28;20820;-74
2024/02/24 03:26:41;;;;;;;0.40;0.40;;;2.40;99.90;;;;;;2041467;28;20238;-74
2024/02/24 03:27:42;;;;;;;0.50;0.50;;;2.30;99.90;;;;;;2045021;28;20266;-75
2024/02/24 03:28:42;;;;;;;0.60;0.60;;;2.30;99.90;;;;;;2044620;28;20325;-74
2024/02/24 03:29:43;;;;;;;0.50;0.50;;;2.20;99.90;;;;;;2050871;28;20298;-75
2024/02/24 03:30:44;;;;;;;2.27;1.03;;;2.20;99.90;;;;;;2041491;28;20231;-75
2024/02/24 03:31:44;;;;;;;0.40;0.40;;;2.30;99.90;;;;;;2040545;28;20811;-74
2024/02/24 03:32:45;;;;;;;0.50;0.50;;;2.20;99.90;;;;;;2050051;28;20265;-75
2024/02/24 03:33:46;;;;;;;0.80;0.50;;;2.20;99.90;;;;;;2049061;28;20269;-75
2024/02/24 03:34:46;;;;;;;0.50;0.50;;;2.20;99.90;;;;;;2055405;28;20332;-75
2024/02/24 03:35:47;;;;;;;0.40;0.40;;;2.10;99.90;;;;;;2054929;28;20308;-73
2024/02/24 03:36:48;;;;;;;0.47;0.47;;;2.00;99.90;;;;;;2043131;29;22405;-74
2024/02/24 03:37:49;;;;;;;0.70;0.70;;;2.00;99.90;;;;;;2050591;28;20623;-74
2024/02/24 03:38:50;;;;;;;0.60;0.60;;;2.00;99.90;;;;;;2052704;28;20711;-74
2024/02/24 03:39:51;;;;;;;0.50;0.50;;;2.00;99.90;;;;;;2054443;28;20240;-75
2024/02/24 03:40:51;;;;;;;0.60;0.60;;;2.10;99.90;;;;;;2068803;28;20242;-74
2024/02/24 03:41:52;;;;;;;0.67;0.60;;;2.10;99.90;;;;;;2052198;28;20778;-75
2024/02/24 03:42:53;;;;;;;0.80;0.77;;;2.00;99.90;;;;;;2053816;28;20678;-73
2024/02/24 03:43:54;;;;;;;1.20;0.63;;;2.00;99.90;;;;;;2051514;28;20675;-74
2024/02/24 03:44:54;;;;;;;0.53;0.53;;;1.90;99.90;;;;;;2050897;28;20224;-75
2024/02/24 03:45:55;;;;;;;0.70;0.70;;;2.00;99.90;;;;;;2055887;28;20335;-74
2024/02/24 03:46:55;;;;;;;0.80;0.70;;;1.90;99.90;;;;;;2038361;29;20214;-74
2024/02/24 03:47:56;;;;;;;0.53;0.53;;;1.90;99.90;;;;;;2051475;28;20643;-75
2024/02/24 03:48:57;;;;;;;0.60;0.60;;;1.80;99.90;;;;;;2060781;28;20196;-74
2024/02/24 03:49:57;;;;;;;0.87;0.70;;;1.80;99.90;;;;;;2060636;28;20248;-75
2024/02/24 03:50:59;;;;;;;1.13;0.60;;;1.80;99.90;;;;;;2053552;28;20255;-75
2024/02/24 03:52:00;;;;;;;2.03;0.68;;;1.80;99.90;;;;;;2040253;28;20205;-74
2024/02/24 03:53:01;;;;;;;0.60;0.60;;;1.80;99.90;;;;;;2046979;28;20655;-74
2024/02/24 03:54:01;;;;;;;0.50;0.50;;;1.80;99.90;;;;;;2051947;28;20186;-75
2024/02/24 03:55:02;;;;;;;0.83;0.70;;;1.70;99.90;;;;;;2052523;28;20199;-74
2024/02/24 03:56:03;;;;;;;0.60;0.60;;;1.70;99.90;;;;;;2051221;28;20192;-75
2024/02/24 03:57:04;;;;;;;1.37;1.07;;;1.70;99.90;;;;;;2055014;28;20234;-75
2024/02/24 03:58:05;;;;;;;0.87;0.77;;;1.70;99.90;;;;;;2044799;28;20439;-75
2024/02/24 03:59:05;;;;;;;0.80;0.80;;;1.70;99.90;;;;;;2052539;28;20187;-75
2024/02/24 04:00:08;;;;;;;1.33;1.03;;;1.70;99.90;;;;;;2036983;29;20185;-75
2024/02/24 04:01:09;;;;;;;1.13;0.80;;;1.70;99.90;;;;;;2052879;28;20192;-75
2024/02/24 04:02:09;;;;;;;0.70;0.70;;;1.80;99.90;;;;;;2049402;28;20213;-75
2024/02/24 04:03:10;;;;;;;1.33;0.80;;;1.80;99.90;;;;;;2048825;28;20181;-74
2024/02/24 04:04:11;;;;;;;0.70;0.70;;;1.80;99.90;;;;;;2043600;28;20191;-75
2024/02/24 04:05:12;;;;;;;1.80;0.93;;;1.80;99.90;;;;;;2037786;28;20199;-75
2024/02/24 04:06:14;;;;;;;1.90;1.00;;;1.80;99.90;;;;;;2051083;28;20243;-74
2024/02/24 04:07:15;;;;;;;2.70;1.10;;;1.80;99.90;;;;;;2055412;28;20246;-74
2024/02/24 04:08:15;;;;;;;3.03;1.70;;;1.80;99.90;;;;;;2044737;28;20240;-75
2024/02/24 04:09:16;;;;;;;3.03;2.00;;;1.90;99.90;;;;;;2042325;28;20676;-76
2024/02/24 04:10:17;;;;;;;2.63;1.73;;;1.80;99.90;;;;;;2029802;29;20248;-74
2024/02/24 04:11:18;;;;;;;3.97;2.90;;;1.80;99.90;;;;;;2041059;29;20764;-75
2024/02/24 04:12:18;;;;;;;5.30;3.00;;;1.80;99.90;;;;;;2033728;29;20313;-75
2024/02/24 04:13:22;;;;;;;3.60;2.30;;;1.90;99.90;;;;;;2044701;28;21051;-75
2024/02/24 04:14:23;;;;;;;5.78;3.60;;;1.80;99.90;;;;;;2058077;28;20243;-75
2024/02/24 04:15:24;;;;;;;4.60;2.63;;;1.90;99.90;;;;;;2055270;28;20232;-75
2024/02/24 04:16:25;;;;;;;4.35;2.53;;;1.80;99.90;;;;;;2053189;28;20237;-75
2024/02/24 04:17:26;;;;;;;2.63;2.03;;;1.80;99.90;;;;;;2051943;28;20238;-75
2024/02/24 04:18:26;;;;;;;5.70;2.40;;;1.80;99.90;;;;;;2050922;28;20222;-75
2024/02/24 04:19:27;;;;;;;3.00;2.60;;;1.90;99.90;;;;;;2046265;29;20240;-75
2024/02/24 04:20:28;;;;;;;3.47;1.97;;;1.90;99.90;;;;;;2045680;29;20902;-75
2024/02/24 04:21:28;;;;;;;3.10;1.77;;;1.90;99.90;;;;;;2041974;29;20649;-75
2024/02/24 04:22:29;;;;;;;2.23;1.70;;;1.90;99.90;;;;;;2054735;28;20727;-75
2024/02/24 04:23:30;;;;;;;2.53;1.90;;;1.90;99.90;;;;;;2051230;28;20237;-75
2024/02/24 04:24:30;;;;;;;2.53;1.80;;;2.00;99.90;;;;;;2044844;28;20240;-73
2024/02/24 04:25:31;;;;;;;3.40;1.90;;;1.90;99.90;;;;;;2051654;28;20672;-75
2024/02/24 04:26:32;;;;;;;5.13;2.00;;;1.90;99.90;;;;;;2050008;28;20237;-75
2024/02/24 04:27:32;;;;;;;3.53;2.37;;;1.90;99.90;;;;;;2055965;28;20278;-74
2024/02/24 04:28:33;;;;;;;3.37;2.20;;;1.80;99.90;;;;;;2050693;28;20228;-75
2024/02/24 04:29:34;;;;;;;3.13;2.17;;;1.80;99.90;;;;;;2054695;28;20759;-75
2024/02/24 04:30:35;;;;;;;3.93;3.03;;;1.80;99.90;;;;;;2056625;28;20259;-75
2024/02/24 04:31:35;;;;;;;3.10;2.50;;;1.80;99.90;;;;;;2052073;28;20233;-75
2024/02/24 04:32:36;;;;;;;2.77;1.97;;;1.80;99.90;;;;;;2047529;28;20688;-76
2024/02/24 04:33:37;;;;;;;3.90;3.20;;;1.70;99.90;;;;;;2044559;28;20226;-75
2024/02/24 04:34:38;;;;;;;4.17;2.53;;;1.70;99.90;;;;;;2057526;28;20271;-75
2024/02/24 04:35:38;;;;;;;3.37;2.60;;;1.70;99.90;;;;;;2053517;28;20635;-75
2024/02/24 04:36:42;;;;;;;4.80;2.43;;;1.70;99.90;;;;;;2053294;28;20229;-74
2024/02/24 04:37:43;;;;;;;3.15;2.17;;;1.70;99.90;;;;;;2054068;28;20230;-74
2024/02/24 04:38:44;;;;;;;2.90;2.63;;;1.70;99.90;;;;;;2055859;28;20776;-75
2024/02/24 04:39:44;;;;;;;4.63;2.03;;;1.70;99.90;;;;;;2052125;28;20238;-75
2024/02/24 04:40:45;;;;;;;3.47;2.50;;;1.80;99.90;;;;;;2060771;28;20287;-75
2024/02/24 04:41:46;;;;;;;4.60;2.40;;;1.80;99.90;;;;;;2060563;28;20237;-75
2024/02/24 04:42:46;;;;;;;2.27;2.07;;;1.80;99.90;;;;;;2045878;28;20324;-75
2024/02/24 04:43:47;;;;;;;4.20;2.00;;;1.90;99.90;;;;;;2045683;28;20234;-75
2024/02/24 04:44:49;;;;;;;2.70;2.47;;;1.90;99.90;;;;;;2045301;28;20705;-75
2024/02/24 04:45:50;;;;;;;4.00;2.58;;;1.90;99.90;;;;;;2046127;28;20265;-75
2024/02/24 04:46:50;;;;;;;2.83;2.10;;;2.00;99.90;;;;;;2044807;28;20643;-75
2024/02/24 04:47:51;;;;;;;3.97;2.47;;;1.90;99.90;;;;;;2053190;28;20319;-75
2024/02/24 04:48:52;;;;;;;4.30;2.30;;;1.90;99.90;;;;;;2053639;28;20235;-75
2024/02/24 04:49:53;;;;;;;2.90;2.60;;;1.90;99.90;;;;;;2055430;28;20698;-75
2024/02/24 04:50:53;;;;;;;2.63;2.43;;;1.90;99.90;;;;;;2053346;28;20344;-74
2024/02/24 04:51:54;;;;;;;3.63;2.83;;;1.90;99.90;;;;;;2050589;28;20814;-75
2024/02/24 04:52:55;;;;;;;3.10;2.53;;;2.00;99.90;;;;;;2045932;28;20237;-75
2024/02/24 04:53:55;;;;;;;6.77;2.63;;;2.00;99.90;;;;;;2046184;28;20290;-75
2024/02/24 04:54:57;;;;;;;2.30;2.00;;;2.00;99.90;;;;;;2037015;29;20215;-75
2024/02/24 04:55:58;;;;;;;3.40;2.55;;;2.00;99.90;;;;;;2043152;28;20253;-74
2024/02/24 04:56:58;;;;;;;3.27;2.57;;;2.00;99.90;;;;;;2053516;28;20226;-75
2024/02/24 04:57:59;;;;;;;4.67;2.80;;;2.00;99.90;;;;;;2043954;28;20570;-74
2024/02/24 04:59:00;;;;;;;3.33;2.47;;;2.00;99.90;;;;;;2049843;28;20190;-74
2024/02/24 05:00:00;;;;;;;5.60;2.87;;;2.00;99.90;;;;;;2053367;28;20190;-75
2024/02/24 05:01:01;;;;;;;3.43;2.60;;;1.90;99.90;;;;;;2046290;28;20199;-74
2024/02/24 05:02:02;;;;;;;3.03;2.50;;;2.00;99.90;;;;;;2061734;28;20213;-75
2024/02/24 05:03:03;;;;;;;3.10;2.43;;;1.90;99.90;;;;;;2058684;28;20771;-75
2024/02/24 05:04:04;;;;;;;3.85;2.42;;;1.90;99.90;;;;;;2055192;28;20588;-74
2024/02/24 05:05:05;;;;;;;3.20;2.43;;;1.90;99.90;;;;;;2040659;28;20187;-75
2024/02/24 05:06:06;;;;;;;3.60;2.72;;;2.00;99.90;;;;;;2037392;29;20187;-75
2024/02/24 05:07:07;;;;;;;3.45;2.85;;;2.00;99.90;;;;;;2055585;28;20911;-74
2024/02/24 05:08:07;;;;;;;5.30;3.03;;;2.10;99.90;;;;;;2058314;28;20196;-75
2024/02/24 05:09:11;;;;;;;7.40;3.50;;;2.10;99.90;;;;;;2051819;28;20193;-75
2024/02/24 05:10:12;;;;;;;3.78;2.97;;;2.00;99.90;;;;;;2057899;28;20684;-75
2024/02/24 05:11:14;;;;;;;8.77;3.03;;;2.00;99.90;;;;;;2045605;28;20250;-75
2024/02/24 05:12:15;;;;;;;3.95;3.00;;;2.00;99.90;;;;;;2050940;28;20247;-75
2024/02/24 05:13:16;;;;;;;3.03;2.30;;;2.00;99.90;;;;;;2050222;28;20238;-74
2024/02/24 05:14:18;;;;;;;4.13;3.10;;;1.90;99.90;;;;;;2050239;28;20242;-74
2024/02/24 05:15:19;;;;;;;3.90;3.20;;;1.90;99.90;;;;;;2036623;29;20246;-75
2024/02/24 05:16:19;;;;;;;4.33;3.43;;;1.90;99.90;;;;;;2041285;28;20345;-75
2024/02/24 05:17:20;;;;;;;4.77;3.43;;;1.90;99.90;;;;;;2039519;28;20243;-76
2024/02/24 05:18:21;;;;;;;3.60;3.07;;;1.90;99.90;;;;;;2045051;29;20230;-74
2024/02/24 05:19:21;;;;;;;3.70;3.17;;;1.80;99.90;;;;;;2057920;28;20240;-74
2024/02/24 05:20:22;;;;;;;3.73;2.90;;;1.80;99.90;;;;;;2050544;28;20714;-75
2024/02/24 05:21:23;;;;;;;3.10;2.67;;;1.90;99.90;;;;;;2057632;28;20229;-74
2024/02/24 05:22:25;;;;;;;4.07;3.13;;;1.90;99.90;;;;;;2054789;28;20237;-75